»·PEaware :: N243PM KSNA-KVNY

N243PM :: KSNA-KVNY

FLIGHT INFORMATION

Flight Status: Arrived
Operator: Privately registered:
United States
More flights under this callsign
Pilot: Ryan L. (9775)
Aircraft: PIPER PA-28R-201 ARROW
(P28R)
More flights by this aircraft type
Origin: KSNA John Wayne-Orange Co
United States
Destination: KVNY Van Nuys
United States
More flights between these airports :: More routes between these airports
Route: SLI V23 POPPR SMO125 SMO SMO317 CANOG
File this flight plan on PilotEdge
Remarks:
Altitude:
(Current/Filed)
4,000ft
Speed:
(Current/Filed)
0kts
Departed: 12-Jan-18 08:16 PM
Arrived: 12-Jan-18 08:52 PM
Distance/Time
Traveled:
44nm/0:35
Distance/Time
To Go:
Arrived

Flight Plot

Page will automatically refresh every two minutes.


Map Options




Map Legend


Flown Route
Filed Route
Departure Airport
Arrival Airport
Navaid (VOR, NDB)
Fix

Horizontal Profiles

Position Reports

Time Latitude Longitude Heading Altitude Ground
Speed
12-Jan-18 20:10 33.671602 -117.873527 28 59ft 0kts
12-Jan-18 20:11 33.671602 -117.873527 28 59ft 0kts
12-Jan-18 20:12 33.671602 -117.873527 28 59ft 0kts
12-Jan-18 20:13 33.671602 -117.873527 28 59ft 0kts
12-Jan-18 20:14 33.671602 -117.873527 28 59ft 0kts
12-Jan-18 20:15 33.671602 -117.873527 28 59ft 0kts
12-Jan-18 20:16 33.671602 -117.873527 28 59ft 0kts
12-Jan-18 20:17 33.671602 -117.873527 28 59ft 0kts
12-Jan-18 20:18 33.672494 -117.872350 27 59ft 11kts
12-Jan-18 20:19 33.676195 -117.870000 26 59ft 16kts
12-Jan-18 20:20 33.680090 -117.867720 25 59ft 15kts
12-Jan-18 20:21 33.680578 -117.865731 209 59ft 0kts
12-Jan-18 20:22 33.668351 -117.873949 213 504ft 72kts
12-Jan-18 20:23 33.671954 -117.888759 16 1144ft 80kts
12-Jan-18 20:24 33.689260 -117.871991 34 1110ft 77kts
12-Jan-18 20:25 33.692345 -117.858057 208 605ft 65kts
12-Jan-18 20:26 33.678381 -117.867147 210 59ft 19kts
12-Jan-18 20:27 33.680468 -117.867491 26 59ft 16kts
12-Jan-18 20:28 33.681229 -117.866508 113 59ft 0kts
12-Jan-18 20:29 33.680919 -117.865822 133 59ft 11kts
12-Jan-18 20:30 33.668376 -117.873257 214 374ft 79kts
12-Jan-18 20:31 33.654063 -117.892841 248 1435ft 87kts
12-Jan-18 20:32 33.666502 -117.913748 323 2482ft 90kts
12-Jan-18 20:33 33.686133 -117.931611 317 3457ft 89kts
12-Jan-18 20:34 33.707092 -117.952060 318 4042ft 116kts
12-Jan-18 20:35 33.731758 -117.983880 311 4034ft 136kts
12-Jan-18 20:36 33.756390 -118.017551 313 3910ft 133kts
12-Jan-18 20:37 33.781520 -118.048983 308 3947ft 129kts
12-Jan-18 20:38 33.792038 -118.090612 286 3986ft 131kts
12-Jan-18 20:39 33.801797 -118.132591 289 4031ft 130kts
12-Jan-18 20:40 33.813677 -118.173539 289 4058ft 131kts
12-Jan-18 20:41 33.822565 -118.216357 288 4024ft 132kts
12-Jan-18 20:42 33.837456 -118.256124 299 3991ft 130kts
12-Jan-18 20:43 33.853376 -118.294862 306 3997ft 128kts
12-Jan-18 20:44 33.879615 -118.324166 319 3948ft 130kts
12-Jan-18 20:45 33.908248 -118.350615 322 3899ft 131kts
12-Jan-18 20:46 33.936683 -118.376653 319 3960ft 129kts
12-Jan-18 20:47 33.965063 -118.404125 314 3955ft 130kts
12-Jan-18 20:48 33.990460 -118.435441 315 3985ft 133kts
12-Jan-18 20:49 34.018303 -118.464737 330 4017ft 136kts
12-Jan-18 20:50 34.053984 -118.478598 351 4066ft 137kts
12-Jan-18 20:51 34.090974 -118.488045 346 4113ft 137kts
12-Jan-18 20:52 34.126937 -118.499474 353 3990ft 132kts
12-Jan-18 20:53 34.161430 -118.502020 2 3129ft 122kts
12-Jan-18 20:54 34.192767 -118.503687 352 2147ft 105kts
12-Jan-18 20:55 34.218341 -118.506746 358 1725ft 83kts
12-Jan-18 20:56 34.233501 -118.499809 100 1328ft 74kts
12-Jan-18 20:57 34.216707 -118.491037 167 844ft 69kts
12-Jan-18 20:58 34.204790 -118.490250 195 804ft 16kts
12-Jan-18 20:59 34.201336 -118.490401 164 804ft 10kts
12-Jan-18 21:00 34.200640 -118.491053 315 804ft 0kts
12-Jan-18 21:01 34.200640 -118.491053 315 804ft 0kts
12-Jan-18 21:02 34.200640 -118.491053 315 804ft 0kts
12-Jan-18 21:03 34.200640 -118.491053 315 804ft 0kts
12-Jan-18 21:04 34.200640 -118.491053 315 804ft 0kts

Navigation Log

Ident Type
1. KSNA Airport
2. SLI Navaid
3. POPPR Fix
4. SMO Navaid
5. CANOG Fix
6. KVNY Airport